Flight Track Log - Related Links

Times and Time Zones

All times are in EDT time to prevent confusion due to time zone crossing. See the N589H flight status page for this flight to view local times or setup timezone preferences in your user account.

Time Position Orientation Groundspeed Altitude Reporting Facility
EDT Latitude Longitude Course Direction KTS MPH feet Rate Location/Type
Wed 08:15:56 AM 27.9167 -82.6833 291° West 119 137 500  Level Tampa TRACON
Wed 08:17:08 AM 27.9333 -82.7333 291° West 165 190 1,900 1,382 Climbing Tampa TRACON
Wed 08:19:07 AM 27.8422 -82.7431 185° South 221 254 4,900 1,676 Climbing Miami Center
Wed 08:20:07 AM 27.7803 -82.7236 164° South 221 254 6,900 1,900 Climbing Miami Center
Wed 08:21:07 AM 27.7167 -82.6967 159° South 228 262 8,700 1,857 Climbing Miami Center
Wed 08:21:31 AM 27.6925 -82.6814 151° Southeast 233 268 9,500 1,786 Climbing Miami Center
Wed 08:22:31 AM 27.6292 -82.6456 153° Southeast 247 284 11,200 1,900 Climbing Miami Center
Wed 08:23:31 AM 27.5642 -82.6022 149° Southeast 258 297 13,300 1,950 Climbing Miami Center
Wed 08:24:31 AM 27.5011 -82.5617 150° Southeast 258 297 15,100 1,850 Climbing Miami Center
Wed 08:25:31 AM 27.4339 -82.5211 152° Southeast 258 297 17,000 1,600 Climbing Miami Center
Wed 08:26:31 AM 27.3844 -82.4508 128° Southeast 271 312 18,300 1,450 Climbing Miami Center
Wed 08:27:31 AM 27.3314 -82.3642 125° Southeast 304 350 19,900 1,450 Climbing Miami Center
Wed 08:28:31 AM 27.2822 -82.2800 123° Southeast 314 361 21,200 1,350 Climbing Miami Center
Wed 08:29:31 AM 27.2314 -82.1936 123° Southeast 319 367 22,600 1,400 Climbing Miami Center
Wed 08:30:31 AM 27.1842 -82.1144 124° Southeast 335 386 24,000 1,450 Climbing Miami Center
Wed 08:31:31 AM 27.1289 -82.0256 125° Southeast 353 406 25,500 1,500 Climbing Miami Center
Wed 08:32:31 AM 27.0678 -81.9250 124° Southeast 353 406 27,000 1,300 Climbing Miami Center
Wed 08:33:31 AM 27.0125 -81.8342 124° Southeast 353 406 28,100 1,050 Climbing Miami Center
Wed 08:34:31 AM 26.9531 -81.7383 125° Southeast 358 412 29,100 950 Climbing Miami Center
Wed 08:35:31 AM 26.9017 -81.6522 124° Southeast 363 418 30,000 900 Climbing Miami Center
Wed 08:36:31 AM 26.8422 -81.5569 125° Southeast 368 423 30,900 500 Climbing Miami Center
Wed 08:37:31 AM 26.7747 -81.4472 125° Southeast 380 437 31,000 50 Climbing Miami Center
Wed 08:38:31 AM 26.7092 -81.3422 125° Southeast 400 460 31,000  Level Miami Center
Wed 08:39:31 AM 26.6453 -81.2422 126° Southeast 427 491 31,000  Level Miami Center
Wed 08:40:31 AM 26.5775 -81.1331 125° Southeast 433 498 31,000  Level Miami Center
Wed 08:41:31 AM 26.5056 -81.0189 125° Southeast 446 513 31,000  Level Miami Center
Wed 08:42:31 AM 26.4358 -80.9053 124° Southeast 451 519 31,000  Level Miami Center
Wed 08:43:31 AM 26.3636 -80.7914 125° Southeast 451 519 31,000  Level Miami Center
Wed 08:44:31 AM 26.2936 -80.6781 125° Southeast 451 519 31,000  Level Miami Center
Wed 08:45:31 AM 26.2214 -80.5644 125° Southeast 451 519 31,000  Level Miami Center
Wed 08:46:31 AM 26.1511 -80.4511 125° Southeast 451 519 31,000  Level Miami Center
Wed 08:47:31 AM 26.0786 -80.3381 126° Southeast 451 519 31,000  Level Miami Center
Wed 08:48:31 AM 26.0061 -80.2250 125° Southeast 451 519 31,000  Level Miami Center
Wed 08:49:31 AM 25.9356 -80.1097 124° Southeast 456 525 31,000  Level Miami Center
Wed 08:50:31 AM 25.8608 -79.9969 126° Southeast 456 525 31,000  Level Miami Center
Wed 08:51:31 AM 25.7900 -79.8867 125° Southeast 456 525 31,000  Level Miami Center
Wed 08:52:31 AM 25.7150 -79.7717 126° Southeast 456 525 31,000  Level Miami Center
Wed 08:53:31 AM 25.6419 -79.6594 126° Southeast 456 525 31,000  Level Miami Center
Wed 08:54:31 AM 25.5689 -79.5447 125° Southeast 456 525 31,000  Level Miami Center
Wed 08:55:31 AM 25.4978 -79.4306 125° Southeast 456 525 31,000  Level Miami Center
Wed 08:56:31 AM 25.4244 -79.3161 125° Southeast 456 525 31,000  Level Miami Center
Wed 08:57:31 AM 25.3450 -79.1950 126° Southeast 456 525 31,000  Level Miami Center
Wed 08:58:31 AM 25.2717 -79.0811 125° Southeast 456 525 31,000  Level Miami Center
Wed 08:59:31 AM 25.1981 -78.9717 127° Southeast 456 525 31,000  Level Miami Center
Wed 09:00:31 AM 25.1367 -78.8719 124° Southeast 456 525 31,000  Level Miami Center
Wed 09:01:43 AM 25.0628 -78.7606 126° Southeast 450 518 31,000  Level Miami Center
Wed 09:02:43 AM 24.9747 -78.6286 126° Southeast 450 518 31,000  Level Miami Center
Wed 09:03:43 AM 24.9028 -78.5175 126° Southeast 450 518 31,000  Level Miami Center
Wed 09:04:43 AM 24.8308 -78.4067 126° Southeast 450 518 31,000  Level Miami Center
Wed 09:05:43 AM 24.7567 -78.2961 126° Southeast 450 518 31,000  Level Miami Center
Wed 09:06:43 AM 24.6867 -78.1878 125° Southeast 450 518 31,000  Level Miami Center
Wed 09:07:43 AM 24.6144 -78.0794 126° Southeast 450 518 31,000  Level Miami Center
Wed 09:08:43 AM 24.5422 -77.9692 126° Southeast 445 512 31,000  Level Miami Center
Wed 09:09:43 AM 24.4719 -77.8658 127° Southeast 437 503 31,000  Level Miami Center
Wed 09:10:43 AM 24.3994 -77.7556 126° Southeast 432 497 31,000  Level Miami Center
Wed 09:11:43 AM 24.3289 -77.6525 127° Southeast 438 504 31,000  Level Miami Center
Wed 09:12:43 AM 24.2564 -77.5450 126° Southeast 438 504 31,000  Level Miami Center
Wed 09:13:43 AM 24.1856 -77.4397 126° Southeast 438 504 31,000  Level Miami Center
Wed 09:14:43 AM 24.1108 -77.3347 128° Southeast 438 504 31,000  Level Miami Center
Wed 09:15:43 AM 24.0317 -77.2389 132° Southeast 433 498 31,000  Level Miami Center
Wed 09:16:43 AM 23.9483 -77.1453 134° Southeast 428 493 31,000  Level Miami Center
Wed 09:17:43 AM 23.8586 -77.0406 133° Southeast 428 493 31,000  Level Miami Center
Wed 09:18:43 AM 23.7792 -76.9428 132° Southeast 428 493 31,000  Level Miami Center
Wed 09:19:43 AM 23.7019 -76.8475 132° Southeast 418 481 31,000  Level Miami Center
Wed 09:20:43 AM 23.6225 -76.7544 133° Southeast 418 481 31,000  Level Miami Center
Wed 09:21:43 AM 23.5431 -76.6617 133° Southeast 418 481 31,000  Level Miami Center
Wed 09:22:43 AM 23.4633 -76.5689 133° Southeast 418 481 31,000  Level Miami Center
Wed 09:23:43 AM 23.3858 -76.4742 132° Southeast 424 488 31,000  Level Miami Center
Wed 09:24:43 AM 23.3083 -76.3839 133° Southeast 419 482 31,000  Level Miami Center
Wed 09:25:43 AM 23.2286 -76.2869 132° Southeast 419 482 31,000  Level Miami Center
Wed 09:26:43 AM 23.1486 -76.1947 133° Southeast 419 482 31,000  Level Miami Center
Wed 09:27:43 AM 23.0689 -76.1025 133° Southeast 419 482 31,000  Level Miami Center
Wed 09:28:43 AM 22.9911 -76.0081 132° Southeast 419 482 31,000  Level Miami Center
Wed 09:29:43 AM 22.9111 -75.9161 133° Southeast 419 482 31,000  Level Miami Center
Wed 09:30:43 AM 22.8311 -75.8222 133° Southeast 419 482 31,000  Level Miami Center
Wed 09:31:43 AM 22.7531 -75.7303 133° Southeast 419 482 31,000  Level Miami Center
Wed 09:32:43 AM 22.6708 -75.6389 134° Southeast 419 482 31,000  Level Miami Center
Wed 09:33:43 AM 22.5928 -75.5450 132° Southeast 419 482 31,000  Level Miami Center
Wed 09:34:43 AM 22.5147 -75.4558 133° Southeast 419 482 31,000  Level Miami Center
Wed 09:35:43 AM 22.4367 -75.3647 133° Southeast 419 482 31,000  Level Miami Center
Wed 09:36:43 AM 22.3583 -75.2733 133° Southeast 419 482 31,000  Level Miami Center
Wed 09:37:43 AM 22.2800 -75.1822 133° Southeast 419 482 31,000  Level Miami Center
Wed 09:38:43 AM 22.1997 -75.0892 133° Southeast 419 482 31,000  Level Miami Center
Wed 09:39:43 AM 22.1172 -75.0053 137° Southeast 419 482 31,000  Level Miami Center
Wed 09:40:43 AM 22.0283 -74.9258 140° Southeast 413 475 31,000  Level Miami Center
Wed 09:41:43 AM 21.9439 -74.8486 140° Southeast 408 470 31,000  Level Miami Center
Wed 09:42:43 AM 21.8594 -74.7694 139° Southeast 408 470 31,000  Level Miami Center
Wed 09:43:43 AM 21.7894 -74.7078 141° Southeast 408 470 31,000  Level Miami Center
Wed 09:44:43 AM 21.6836 -74.6114 140° Southeast 408 470 31,000  Level Miami Center
Wed 09:45:43 AM 21.5947 -74.5303 140° Southeast 408 470 31,000  Level Miami Center
Wed 09:46:43 AM 21.5019 -74.4694 149° Southeast 408 470 31,000  Level Miami Center
Wed 09:47:43 AM 21.4111 -74.4042 146° Southeast 402 463 31,000  Level Miami Center
Wed 09:48:43 AM 21.3203 -74.3322 144° Southeast 402 463 31,000  Level Miami Center
Wed 09:49:43 AM 21.2394 -74.2469 135° Southeast 402 463 31,000  Level Miami Center
Wed 09:50:43 AM 21.1628 -74.1594 133° Southeast 402 463 31,000  Level Miami Center
Wed 09:51:43 AM 21.0842 -74.0719 134° Southeast 408 470 31,000  Level Miami Center
Wed 09:52:43 AM 20.9972 -73.9958 141° Southeast 403 464 31,000  Level Miami Center
Wed 09:53:43 AM 20.9142 -73.9200 140° Southeast 396 456 31,000  Level Miami Center
Wed 09:54:43 AM 20.8314 -73.8375 137° Southeast 396 456 31,000  Level Miami Center
Wed 09:55:43 AM 20.7464 -73.7594 139° Southeast 396 456 31,000  Level Miami Center
Wed 09:56:43 AM 20.6611 -73.6814 139° Southeast 401 461 31,000  Level Miami Center
Wed 09:57:43 AM 20.5761 -73.6081 141° Southeast 401 461 31,000  Level Miami Center
Wed 09:58:43 AM 20.4892 -73.5306 140° Southeast 407 468 31,000 -400 Level Miami Center
Wed 09:59:43 AM 20.4017 -73.4508 139° Southeast 413 475 30,200 -1,100 Descending Miami Center
Wed 10:00:43 AM 20.3103 -73.3689 140° Southeast 413 475 28,800 -1,350 Descending Miami Center
Wed 10:01:43 AM 20.2189 -73.2917 142° Southeast 418 481 27,500 -1,350 Descending Miami Center
Wed 10:02:43 AM 20.1317 -73.2144 140° Southeast 418 481 26,100 -1,400 Descending Miami Center
Wed 10:04:00 AM 19.9990 -73.1684 149° Southeast  Level FlightAware Approximate
Wed 10:11:00 AM 19.3671 -72.7639 149° Southeast  Level FlightAware Approximate
Wed 10:12:00 AM 19.2768 -72.7064 149° Southeast  Level FlightAware Approximate
Wed 10:13:00 AM 19.1860 -72.6496 149° Southeast  Level FlightAware Approximate
Wed 10:14:00 AM 19.0946 -72.5941 151° Southeast  Level FlightAware Approximate
Wed 10:15:00 AM 19.0023 -72.5402 151° Southeast  Level FlightAware Approximate
Wed 10:16:00 AM 18.9102 -72.4861 150° Southeast  Level FlightAware Approximate
Wed 10:17:00 AM 18.8194 -72.4296 148° Southeast  Level FlightAware Approximate
Wed 10:18:00 AM 18.7229 -72.3858 159° South  Level FlightAware Approximate
Wed 10:19:00 AM 18.6341 -72.3270 159° South  Level FlightAware Approximate
Wed 10:20:00 AM 18.5800 -72.2925 159° South  Level Estimated
Wed 10:21:00 AM 18.5800 -72.2925 159° South  Level Estimated
Wed 10:22:00 AM 18.5800 -72.2925 159° South  Level Estimated
Wed 10:23:00 AM 18.5800 -72.2925 159° South  Level Estimated
Wed 10:24:00 AM 18.5800 -72.2925 159° South  Level Estimated
Wed 10:25:00 AM 18.5800 -72.2925 159° South  Level Estimated
Wed 10:26:00 AM 18.5800 -72.2925 159° South  Level Estimated
Wed 10:27:00 AM 18.5800 -72.2925 159° South  Level Estimated
Wed 10:28:00 AM 18.5800 -72.2925 159° South  Level Estimated
Wed 10:29:00 AM 18.5800 -72.2925 159° South  Level Estimated
Wed 10:30:00 AM 18.5800 -72.2925 159° South  Level Estimated
Wed 10:31:00 AM 18.5800 -72.2925 159° South  Level Estimated
Wed 10:32:00 AM 18.5800 -72.2925 159° South  Level Estimated
Wed 10:33:00 AM 18.5800 -72.2925 159° South  Level Estimated

Login

Don't have an account? Register now (free) for customized features, flight alerts, and more!